Chatham, New York
Current Conditions -  °F | °C
As of 8:54 AM on Wednesday 26 Nov 2014 (Local Time) from KPSF Reporting Station
Light Snow Light Snow  
Wind Chill: 29°   Ceiling: 2800
Heat Index: 34°   Visibility: 4mi
Dew Point: 27°   Wind: 6mph
Humidity: 75%   Direction: 50°NE
Pressure: 30.12"   Gusts: NA
Location:  42.36°N, 73.59°W
Report Text: KPSF 261354Z AUTO 05005KT 4SM -SN OVC028 01/M03 A3012 RMK AO2 SNB44 SLP206 P0000 T00111028
Loading
Personal Weather Stations






























Interactive Weather Map New forecast layout! Learn more

10-Day Weather Forecast

Advertisements
Track Severe Weather on mobile